createdAt,value
2022-12-23T00:01:13.606Z,13.30
2022-12-23T00:03:40.203Z,13.00
2022-12-23T00:06:12.149Z,13.45
2022-12-23T00:08:38.649Z,12.82
2022-12-23T00:11:06.880Z,13.38
2022-12-23T00:13:52.033Z,13.68
2022-12-23T00:16:18.639Z,12.60
2022-12-23T00:18:45.150Z,11.18
2022-12-23T00:21:14.055Z,10.30
2022-12-23T00:23:43.752Z,11.95
2022-12-23T00:26:15.879Z,12.63
2022-12-23T00:28:42.560Z,11.85
2022-12-23T00:31:09.846Z,12.68
2022-12-23T00:33:38.802Z,9.23
2022-12-23T00:36:23.385Z,10.10
2022-12-23T00:39:09.135Z,11.38
2022-12-23T00:41:54.035Z,8.77
2022-12-23T00:44:20.697Z,10.63
2022-12-23T00:46:47.127Z,8.85
2022-12-23T00:49:33.250Z,8.40
2022-12-23T00:52:00.159Z,8.20
2022-12-23T00:54:26.725Z,8.63
2022-12-23T00:56:53.737Z,8.23
2022-12-23T00:59:20.135Z,9.48
2022-12-23T01:02:05.529Z,9.60
2022-12-23T01:04:50.966Z,7.80
2022-12-23T01:07:19.862Z,9.05
2022-12-23T01:09:46.310Z,8.70
2022-12-23T01:12:12.730Z,7.95
2022-12-23T01:14:39.188Z,7.57
2022-12-23T01:17:07.098Z,9.95
2022-12-23T01:19:33.984Z,9.18
2022-12-23T01:22:00.344Z,9.23
2022-12-23T01:24:32.670Z,8.95
2022-12-23T01:26:59.552Z,9.68
2022-12-23T01:29:26.253Z,9.48
2022-12-23T01:31:52.759Z,9.52
2022-12-23T01:34:19.260Z,10.63
2022-12-23T01:36:45.774Z,9.55
2022-12-23T01:39:12.191Z,10.68
2022-12-23T01:41:57.415Z,11.18
2022-12-23T01:44:52.680Z,9.80
2022-12-23T01:47:24.776Z,9.55
2022-12-23T01:49:54.722Z,10.68
2022-12-23T01:54:47.875Z,11.43
2022-12-23T01:57:14.399Z,11.32
2022-12-23T02:00:13.548Z,10.85
2022-12-23T02:02:59.626Z,8.88
2022-12-23T02:05:26.333Z,10.05
2022-12-23T02:08:11.919Z,10.18
2022-12-23T02:11:02.554Z,10.73
2022-12-23T02:14:03.221Z,10.32
2022-12-23T02:16:33.936Z,10.13
2022-12-23T02:19:10.224Z,9.88
2022-12-23T02:22:14.033Z,10.75
2022-12-23T02:25:04.883Z,9.90
2022-12-23T02:27:49.745Z,9.88
2022-12-23T02:30:22.196Z,8.90
2022-12-23T02:33:03.747Z,9.80
2022-12-23T02:35:44.218Z,10.85
2022-12-23T02:38:25.766Z,10.43
2022-12-23T02:41:16.940Z,9.07
2022-12-23T02:44:04.492Z,9.98
2022-12-23T02:46:44.834Z,9.00
2022-12-23T02:49:15.079Z,9.50
2022-12-23T02:51:44.675Z,11.35
2022-12-23T02:54:14.343Z,8.13
2022-12-23T02:56:43.470Z,9.27
2022-12-23T02:59:16.552Z,9.77
2022-12-23T03:01:44.640Z,8.52
2022-12-23T03:04:11.164Z,7.05
2022-12-23T03:06:43.548Z,8.30
2022-12-23T03:09:29.928Z,9.50
2022-12-23T03:12:27.302Z,8.43
2022-12-23T03:15:02.321Z,9.63
2022-12-23T03:17:35.272Z,9.82
2022-12-23T03:20:15.271Z,8.85
2022-12-23T03:23:02.151Z,9.95
2022-12-23T03:25:34.367Z,9.00
2022-12-23T03:28:10.369Z,9.43
2022-12-23T03:30:39.534Z,8.55
2022-12-23T03:33:22.678Z,8.90
2022-12-23T03:35:53.727Z,9.00
2022-12-23T03:38:21.555Z,8.90
2022-12-23T03:40:50.687Z,10.27
2022-12-23T03:43:27.650Z,9.75
2022-12-23T03:45:58.146Z,10.07
2022-12-23T03:48:37.292Z,10.18
2022-12-23T03:51:09.598Z,12.43
2022-12-23T03:53:46.819Z,10.45
2022-12-23T03:56:21.188Z,11.13
2022-12-23T03:58:48.885Z,9.65
2022-12-23T04:01:38.169Z,10.05
2022-12-23T04:04:11.944Z,11.20
2022-12-23T04:07:27.994Z,11.07
2022-12-23T04:09:54.712Z,10.32
2022-12-23T04:12:23.250Z,11.30
2022-12-23T04:14:50.048Z,9.75
2022-12-23T04:17:16.701Z,10.63
2022-12-23T04:19:45.566Z,10.98
2022-12-23T04:22:13.118Z,9.63
2022-12-23T04:24:39.785Z,9.20
2022-12-23T04:27:07.021Z,8.68
2022-12-23T04:29:36.097Z,9.85
2022-12-23T04:32:02.465Z,9.00
2022-12-23T04:34:28.899Z,9.48
2022-12-23T04:36:55.465Z,9.48
2022-12-23T04:39:22.110Z,9.93
2022-12-23T04:41:48.734Z,9.25
2022-12-23T04:44:15.172Z,10.30
2022-12-23T04:46:42.000Z,9.95
2022-12-23T04:49:08.657Z,9.32
2022-12-23T04:51:35.070Z,9.30
2022-12-23T04:54:01.513Z,10.07
2022-12-23T04:56:27.978Z,10.35
2022-12-23T04:58:54.513Z,9.77
2022-12-23T05:01:20.993Z,9.88
2022-12-23T05:03:47.490Z,9.65
2022-12-23T05:06:13.945Z,10.02
2022-12-23T05:08:40.304Z,9.13
2022-12-23T05:11:07.413Z,10.27
2022-12-23T05:13:33.841Z,15.68
2022-12-23T05:16:00.351Z,16.25
2022-12-23T05:18:26.849Z,16.90
2022-12-23T05:20:53.242Z,18.67
2022-12-23T05:23:19.608Z,18.90
2022-12-23T05:25:51.065Z,17.25
2022-12-23T05:28:17.498Z,18.52
2022-12-23T05:30:44.141Z,17.55
2022-12-23T05:33:10.596Z,18.50
2022-12-23T05:35:37.133Z,17.50
2022-12-23T05:38:04.079Z,17.60
2022-12-23T05:40:32.031Z,18.85
2022-12-23T05:43:00.195Z,18.08
2022-12-23T05:45:26.645Z,17.90
2022-12-23T05:47:53.117Z,18.60
2022-12-23T05:50:19.494Z,19.30
2022-12-23T05:52:45.893Z,17.08
2022-12-23T05:55:12.335Z,17.67
2022-12-23T05:57:38.710Z,16.67
2022-12-23T06:00:05.550Z,18.60
2022-12-23T06:02:32.113Z,15.50
2022-12-23T06:04:58.607Z,16.55
2022-12-23T06:07:25.012Z,17.67
2022-12-23T06:09:51.490Z,15.57
2022-12-23T06:12:17.864Z,16.15
2022-12-23T06:14:44.349Z,16.65
2022-12-23T06:17:10.777Z,11.27
2022-12-23T06:19:37.160Z,9.45
2022-12-23T06:22:03.606Z,8.32
2022-12-23T06:24:30.000Z,7.75
2022-12-23T06:26:57.514Z,8.82
2022-12-23T06:29:24.911Z,7.45
2022-12-23T06:31:51.501Z,5.70
2022-12-23T06:34:18.057Z,6.43
2022-12-23T06:36:44.488Z,6.88
2022-12-23T06:39:11.205Z,7.28
2022-12-23T06:41:37.579Z,5.95
2022-12-23T06:44:04.177Z,6.10
2022-12-23T06:46:30.650Z,6.30
2022-12-23T06:48:57.137Z,6.00
2022-12-23T06:51:23.567Z,6.88
2022-12-23T06:53:49.954Z,6.95
2022-12-23T06:56:16.439Z,6.95
2022-12-23T06:58:42.869Z,6.18
2022-12-23T07:01:10.212Z,7.40
2022-12-23T07:03:36.955Z,7.13
2022-12-23T07:06:03.674Z,6.97
2022-12-23T07:08:30.093Z,6.50
2022-12-23T07:11:00.663Z,7.57
2022-12-23T07:13:27.317Z,6.95
2022-12-23T07:15:53.885Z,7.53
2022-12-23T07:18:22.786Z,7.22
2022-12-23T07:20:50.000Z,7.30
2022-12-23T07:23:16.596Z,8.60
2022-12-23T07:25:42.999Z,7.80
2022-12-23T07:28:09.373Z,8.70
2022-12-23T07:30:36.083Z,8.50
2022-12-23T07:33:02.485Z,9.25
2022-12-23T07:35:28.851Z,9.07
2022-12-23T07:37:56.107Z,9.00
2022-12-23T07:40:23.340Z,8.80
2022-12-23T07:42:50.406Z,9.35
2022-12-23T07:45:16.912Z,9.63
2022-12-23T07:47:43.565Z,9.35
2022-12-23T07:50:10.198Z,8.88
2022-12-23T07:52:37.083Z,10.07
2022-12-23T07:55:04.108Z,9.68
2022-12-23T07:57:30.543Z,10.23
2022-12-23T07:59:57.192Z,9.45
2022-12-23T08:02:25.067Z,10.63
2022-12-23T08:04:52.048Z,10.70
2022-12-23T08:07:18.513Z,10.60
2022-12-23T08:09:44.922Z,10.52
2022-12-23T08:12:11.355Z,11.68
2022-12-23T08:14:37.785Z,10.15
2022-12-23T08:17:04.297Z,11.02
2022-12-23T08:19:30.787Z,10.63
2022-12-23T08:21:57.197Z,11.23
2022-12-23T08:24:23.620Z,10.25
2022-12-23T08:26:50.003Z,10.18
2022-12-23T08:29:17.058Z,10.50
2022-12-23T08:31:43.505Z,10.70
2022-12-23T08:34:10.667Z,10.18
2022-12-23T08:36:37.067Z,10.80
2022-12-23T08:39:07.065Z,11.27
2022-12-23T08:44:02.012Z,9.70
2022-12-23T08:46:28.621Z,10.88
2022-12-23T08:48:55.806Z,11.07
2022-12-23T08:51:24.144Z,11.27
2022-12-23T08:53:56.239Z,10.15
2022-12-23T08:56:28.445Z,9.93
2022-12-23T08:58:55.405Z,10.27
2022-12-23T09:01:24.144Z,10.00
2022-12-23T09:03:51.252Z,10.85
2022-12-23T09:06:28.672Z,11.38
2022-12-23T09:08:55.914Z,11.07
2022-12-23T09:11:23.975Z,10.57
2022-12-23T09:13:50.644Z,11.48
2022-12-23T09:16:17.589Z,11.93
2022-12-23T09:18:44.415Z,11.10
2022-12-23T09:21:14.105Z,10.90
2022-12-23T09:23:40.835Z,11.90
2022-12-23T09:26:08.233Z,12.35
2022-12-23T09:28:34.686Z,11.30
2022-12-23T09:31:08.913Z,12.18
2022-12-23T09:33:35.789Z,11.82
2022-12-23T09:36:03.209Z,12.00
2022-12-23T09:38:29.803Z,12.30
2022-12-23T09:41:05.893Z,12.93
2022-12-23T09:43:58.518Z,11.43
2022-12-23T09:46:27.449Z,12.02
2022-12-23T09:49:04.318Z,11.80
2022-12-23T09:51:30.930Z,11.85
2022-12-23T09:54:16.666Z,12.25
2022-12-23T09:57:02.582Z,12.15
2022-12-23T09:59:47.665Z,13.30
2022-12-23T10:02:23.546Z,11.48
2022-12-23T10:04:58.003Z,13.02
2022-12-23T10:07:44.218Z,12.68
2022-12-23T10:10:17.652Z,11.70
2022-12-23T10:12:47.273Z,10.98
2022-12-23T10:15:38.113Z,12.73
2022-12-23T10:18:40.207Z,12.02
2022-12-23T10:21:12.895Z,12.15
2022-12-23T10:23:42.872Z,12.40
2022-12-23T10:28:39.232Z,11.48
2022-12-23T10:34:07.441Z,12.63
2022-12-23T10:37:01.145Z,12.90
2022-12-23T10:39:57.336Z,13.00
2022-12-23T10:42:26.561Z,12.40
2022-12-23T10:45:09.906Z,13.93
2022-12-23T10:48:06.098Z,14.05
2022-12-23T10:50:45.996Z,14.30
2022-12-23T10:53:17.107Z,12.68
2022-12-23T10:55:43.833Z,12.43
2022-12-23T10:58:17.545Z,13.10
2022-12-23T11:00:59.283Z,13.00
2022-12-23T11:03:32.792Z,11.48
2022-12-23T11:05:59.568Z,11.75
2022-12-23T11:08:27.597Z,10.85
2022-12-23T11:10:54.354Z,11.48
2022-12-23T11:13:41.709Z,11.73
2022-12-23T11:16:25.155Z,11.30
2022-12-23T11:18:54.509Z,11.07
2022-12-23T11:21:21.123Z,11.98
2022-12-23T11:23:47.784Z,12.82
2022-12-23T11:26:19.683Z,12.60
2022-12-23T11:28:51.691Z,12.15
2022-12-23T11:31:26.907Z,12.45
2022-12-23T11:33:59.252Z,12.63
2022-12-23T11:36:28.055Z,12.40
2022-12-23T11:39:04.974Z,13.05
2022-12-23T11:41:37.499Z,12.75
2022-12-23T11:44:07.461Z,13.38
2022-12-23T11:49:21.854Z,11.32
2022-12-23T11:52:08.489Z,13.80
2022-12-23T11:54:35.125Z,13.10
2022-12-23T11:57:03.356Z,14.80
2022-12-23T11:59:35.642Z,13.55
2022-12-23T12:02:23.844Z,14.75
2022-12-23T12:04:57.185Z,13.60
2022-12-23T12:07:24.159Z,14.48
2022-12-23T12:09:51.302Z,14.13
2022-12-23T12:12:20.259Z,15.30
2022-12-23T12:14:51.984Z,13.90
2022-12-23T12:17:41.012Z,15.63
2022-12-23T12:22:57.956Z,14.13
2022-12-23T12:28:11.282Z,15.48
2022-12-23T12:30:42.144Z,15.02
2022-12-23T12:33:28.885Z,15.60
2022-12-23T12:36:21.867Z,15.20
2022-12-23T12:38:49.204Z,16.70
2022-12-23T12:41:34.607Z,15.48
2022-12-23T12:44:16.145Z,15.43
2022-12-23T12:46:57.783Z,16.67
2022-12-23T12:49:41.071Z,15.00
2022-12-23T12:52:22.328Z,16.30
2022-12-23T12:54:56.522Z,15.48
2022-12-23T12:57:23.851Z,15.70
2022-12-23T12:59:57.378Z,16.90
2022-12-23T13:05:06.059Z,16.27
2022-12-23T13:07:44.582Z,15.70
2022-12-23T13:10:18.556Z,16.35
2022-12-23T13:12:56.394Z,15.52
2022-12-23T13:15:24.009Z,14.80
2022-12-23T13:18:09.262Z,16.20
2022-12-23T13:21:03.566Z,15.50
2022-12-23T13:23:44.672Z,15.00
2022-12-23T13:26:26.624Z,15.35
2022-12-23T13:29:17.615Z,16.40
2022-12-23T13:31:46.969Z,14.82
2022-12-23T13:34:23.959Z,15.57
2022-12-23T13:36:59.322Z,14.32
2022-12-23T13:39:52.071Z,14.00
2022-12-23T13:42:30.200Z,14.93
2022-12-23T13:44:57.650Z,14.05
2022-12-23T13:48:05.734Z,15.18
2022-12-23T13:50:38.178Z,14.85
2022-12-23T13:53:25.846Z,14.88
2022-12-23T13:55:57.726Z,13.50
2022-12-23T13:58:31.190Z,13.75
2022-12-23T14:00:59.066Z,13.77
2022-12-23T14:03:33.552Z,12.43
2022-12-23T14:06:00.193Z,15.00
2022-12-23T14:08:31.648Z,15.15
2022-12-23T14:11:02.609Z,13.85
2022-12-23T14:13:43.163Z,14.20
2022-12-23T14:16:12.995Z,13.77
2022-12-23T14:19:06.949Z,13.20
2022-12-23T14:22:04.354Z,13.85
2022-12-23T14:24:36.875Z,13.48
2022-12-23T14:27:25.085Z,14.23
2022-12-23T14:29:57.410Z,13.00
2022-12-23T14:32:30.567Z,13.60
2022-12-23T14:35:19.136Z,13.43
2022-12-23T14:40:37.519Z,13.23
2022-12-23T14:43:22.097Z,12.90
2022-12-23T14:46:05.966Z,12.65
2022-12-23T14:48:35.464Z,12.50
2022-12-23T14:51:06.325Z,12.43
2022-12-23T14:53:35.580Z,13.00
2022-12-23T14:56:08.044Z,13.13
2022-12-23T14:58:39.463Z,13.60
2022-12-23T15:01:12.773Z,12.00
2022-12-23T15:03:54.538Z,12.90
2022-12-23T15:06:37.085Z,14.07
2022-12-23T15:09:05.484Z,12.95
2022-12-23T15:11:34.176Z,13.68
2022-12-23T15:14:04.496Z,12.20
2022-12-23T15:16:36.527Z,13.52
2022-12-23T15:19:21.302Z,12.13
2022-12-23T15:21:54.480Z,12.13
2022-12-23T15:24:26.821Z,11.85
2022-12-23T15:27:24.708Z,12.00
2022-12-23T15:29:44.161Z,11.93
2022-12-23T15:32:10.964Z,11.45
2022-12-23T15:34:37.650Z,12.35
2022-12-23T15:37:10.445Z,11.95
2022-12-23T15:39:40.280Z,12.23
2022-12-23T15:44:52.475Z,12.93
2022-12-23T15:47:31.719Z,13.38
2022-12-23T15:49:59.549Z,15.35
2022-12-23T15:52:28.366Z,13.65
2022-12-23T15:55:12.253Z,13.57
2022-12-23T15:57:50.157Z,13.07
2022-12-23T16:00:29.424Z,12.93
2022-12-23T16:03:01.694Z,14.05
2022-12-23T16:05:32.348Z,14.73
2022-12-23T16:08:15.220Z,16.40
2022-12-23T16:11:00.455Z,14.73
2022-12-23T16:13:27.002Z,15.18
2022-12-23T16:15:53.508Z,13.73
2022-12-23T16:18:31.634Z,14.15
2022-12-23T16:21:02.438Z,14.60
2022-12-23T16:23:34.722Z,13.90
2022-12-23T16:26:01.919Z,14.00
2022-12-23T16:28:39.973Z,13.77
2022-12-23T16:31:07.980Z,13.63
2022-12-23T16:33:36.559Z,13.98
2022-12-23T16:36:18.404Z,14.35
2022-12-23T16:38:45.619Z,16.25
2022-12-23T16:41:12.296Z,17.02
2022-12-23T16:43:38.697Z,17.10
2022-12-23T16:46:05.707Z,18.98
2022-12-23T16:48:42.718Z,17.73
2022-12-23T16:51:12.797Z,17.00
2022-12-23T16:53:39.241Z,18.38
2022-12-23T16:56:12.713Z,18.15
2022-12-23T16:58:39.138Z,17.60
2022-12-23T17:01:05.735Z,16.23
2022-12-23T17:03:34.766Z,14.68
2022-12-23T17:06:01.190Z,13.15
2022-12-23T17:08:27.593Z,13.40
2022-12-23T17:10:54.074Z,15.45
2022-12-23T17:13:21.549Z,15.88
2022-12-23T17:15:47.938Z,17.23
2022-12-23T17:18:18.609Z,13.57
2022-12-23T17:20:45.738Z,14.43
2022-12-23T17:23:26.748Z,13.75
2022-12-23T17:25:53.593Z,14.18
2022-12-23T17:28:20.294Z,14.68
2022-12-23T17:30:46.774Z,16.42
2022-12-23T17:33:16.846Z,16.40
2022-12-23T17:35:43.422Z,18.02
2022-12-23T17:38:13.534Z,16.27
2022-12-23T17:40:40.259Z,17.13
2022-12-23T17:43:06.792Z,15.45
2022-12-23T17:45:33.424Z,18.27
2022-12-23T17:47:59.867Z,20.25
2022-12-23T17:50:33.618Z,18.23
2022-12-23T17:52:59.989Z,15.13
2022-12-23T17:55:27.009Z,18.50
2022-12-23T17:57:53.595Z,16.90
2022-12-23T18:00:29.759Z,15.02
2022-12-23T18:03:00.183Z,16.40
2022-12-23T18:05:29.349Z,15.05
2022-12-23T18:07:58.216Z,19.63
2022-12-23T18:10:30.928Z,14.25
2022-12-23T18:13:00.388Z,12.48
2022-12-23T18:15:34.387Z,11.95
2022-12-23T18:18:00.771Z,12.32
2022-12-23T18:20:27.321Z,10.20
2022-12-23T18:22:54.643Z,9.80
2022-12-23T18:25:25.911Z,8.82
2022-12-23T18:27:53.780Z,9.93
2022-12-23T18:30:21.404Z,7.00
2022-12-23T18:32:48.274Z,7.18
2022-12-23T18:35:24.937Z,6.68
2022-12-23T18:37:51.502Z,7.35
2022-12-23T18:40:18.042Z,5.93
2022-12-23T18:42:44.416Z,6.90
2022-12-23T18:45:32.163Z,8.05
2022-12-23T18:47:58.913Z,6.72
2022-12-23T18:50:25.741Z,9.07
2022-12-23T18:52:52.645Z,6.80
2022-12-23T18:55:20.186Z,7.95
2022-12-23T18:57:47.432Z,6.32
2022-12-23T19:00:16.829Z,6.70
2022-12-23T19:02:43.353Z,4.85
2022-12-23T19:05:16.547Z,6.90
2022-12-23T19:07:43.013Z,5.40
2022-12-23T19:10:10.391Z,5.43
2022-12-23T19:12:36.758Z,5.80
2022-12-23T19:15:03.265Z,5.28
2022-12-23T19:17:29.661Z,6.40
2022-12-23T19:19:56.063Z,6.00
2022-12-23T19:22:24.185Z,6.75
2022-12-23T19:25:04.429Z,6.53
2022-12-23T19:27:32.129Z,8.63
2022-12-23T19:29:59.300Z,6.97
2022-12-23T19:32:25.833Z,6.72
2022-12-23T19:34:52.239Z,7.63
2022-12-23T19:37:18.609Z,7.03
2022-12-23T19:39:45.058Z,7.43
2022-12-23T19:42:11.495Z,6.25
2022-12-23T19:44:37.868Z,6.47
2022-12-23T19:47:04.930Z,6.18
2022-12-23T19:49:31.501Z,5.82
2022-12-23T19:51:57.956Z,6.97
2022-12-23T19:54:24.417Z,6.88
2022-12-23T19:56:51.337Z,5.40
2022-12-23T19:59:18.372Z,5.53
2022-12-23T20:01:44.856Z,7.45
2022-12-23T20:04:11.728Z,6.55
2022-12-23T20:06:38.720Z,6.03
2022-12-23T20:09:06.523Z,6.95
2022-12-23T20:11:35.558Z,7.38
2022-12-23T20:14:03.111Z,7.03
2022-12-23T20:16:30.267Z,7.53
2022-12-23T20:18:57.431Z,7.05
2022-12-23T20:21:24.424Z,6.13
2022-12-23T20:23:51.303Z,7.30
2022-12-23T20:26:19.140Z,6.75
2022-12-23T20:28:45.746Z,5.43
2022-12-23T20:31:19.010Z,5.60
2022-12-23T20:33:46.577Z,6.30
2022-12-23T20:36:14.658Z,6.80
2022-12-23T20:38:43.276Z,7.15
2022-12-23T20:41:12.904Z,4.25
2022-12-23T20:43:39.611Z,5.20
2022-12-23T20:46:07.186Z,5.35
2022-12-23T20:48:34.747Z,5.32
2022-12-23T20:51:05.452Z,4.50
2022-12-23T20:53:31.877Z,4.55
2022-12-23T20:56:06.493Z,4.88
2022-12-23T20:58:51.638Z,4.47
2022-12-23T21:01:18.064Z,5.13
2022-12-23T21:03:44.542Z,4.50
2022-12-23T21:06:10.913Z,4.10
2022-12-23T21:08:37.748Z,4.80
2022-12-23T21:11:04.889Z,4.22
2022-12-23T21:13:31.441Z,3.58
2022-12-23T21:16:05.706Z,3.63
2022-12-23T21:18:32.629Z,4.45
2022-12-23T21:21:04.561Z,3.28
2022-12-23T21:23:31.866Z,3.47
2022-12-23T21:26:14.942Z,3.20
2022-12-23T21:28:42.907Z,3.67
2022-12-23T21:31:09.672Z,2.90
2022-12-23T21:33:40.723Z,2.72
2022-12-23T21:36:07.871Z,3.28
2022-12-23T21:38:36.923Z,3.83
2022-12-23T21:41:05.782Z,3.65
2022-12-23T21:43:32.382Z,3.63
2022-12-23T21:46:04.393Z,3.88
2022-12-23T21:48:32.538Z,3.42
2022-12-23T21:51:06.368Z,4.15
2022-12-23T21:53:34.196Z,3.63
2022-12-23T21:56:05.253Z,2.95
2022-12-23T21:58:32.537Z,4.10
2022-12-23T22:00:59.357Z,3.17
2022-12-23T22:03:27.252Z,2.75
2022-12-23T22:05:53.837Z,3.15
2022-12-23T22:08:20.221Z,4.30
2022-12-23T22:10:47.292Z,3.10
2022-12-23T22:13:13.748Z,2.85
2022-12-23T22:15:41.841Z,2.80
2022-12-23T22:18:08.270Z,4.75
2022-12-23T22:20:39.819Z,3.13
2022-12-23T22:23:10.706Z,4.20
2022-12-23T22:25:37.144Z,4.68
2022-12-23T22:28:03.802Z,2.92
2022-12-23T22:30:30.238Z,3.58
2022-12-23T22:32:56.697Z,3.53
2022-12-23T22:35:23.137Z,3.13
2022-12-23T22:37:49.548Z,4.18
2022-12-23T22:40:16.091Z,3.60
2022-12-23T22:42:42.504Z,4.60
2022-12-23T22:45:09.346Z,4.03
2022-12-23T22:47:35.846Z,3.45
2022-12-23T22:50:02.306Z,3.47
2022-12-23T22:52:28.678Z,3.40
2022-12-23T22:54:55.145Z,3.72
2022-12-23T22:57:21.583Z,3.22
2022-12-23T22:59:48.119Z,3.80
2022-12-23T23:02:17.236Z,3.28
2022-12-23T23:04:43.688Z,3.53
2022-12-23T23:07:10.102Z,3.65
2022-12-23T23:09:37.077Z,3.85
2022-12-23T23:12:03.592Z,3.63
2022-12-23T23:14:49.992Z,3.80
2022-12-23T23:17:16.370Z,4.07
2022-12-23T23:19:42.827Z,3.78
2022-12-23T23:22:09.213Z,3.92
2022-12-23T23:24:35.584Z,3.35
2022-12-23T23:27:02.047Z,3.78
2022-12-23T23:29:28.437Z,3.42
2022-12-23T23:31:54.865Z,4.28
2022-12-23T23:34:21.436Z,4.10
2022-12-23T23:36:47.912Z,3.78
2022-12-23T23:39:14.473Z,3.60
2022-12-23T23:41:41.268Z,4.40
2022-12-23T23:44:07.902Z,3.40
2022-12-23T23:46:34.686Z,4.03
2022-12-23T23:49:01.172Z,3.45
2022-12-23T23:51:28.188Z,4.93
2022-12-23T23:53:54.659Z,4.20
2022-12-23T23:56:25.305Z,4.03
2022-12-23T23:58:52.777Z,4.35
